Altay, China
Current Conditions -  °F | °C
As of 3:00 PM on Tuesday 21 Oct 2014 (Local Time) from ZWWW Reporting Station
Clear Clear  
Wind Chill: 75°   Ceiling: Unl
Heat Index: 75°   Visibility: 5mi
Dew Point: 30°   Wind: 4mph
Humidity: 19%   Direction: 30°NNE
Pressure: 29.97"   Gusts: NA
Location:  47.84°N, 88.13°E
Report Text: ZWWW 210700Z 03002MPS 330V070 8000 NSC 24/M01 Q1015 NOSIG
Loading
Personal Weather Stations






























Interactive Weather Map
Tropical Storm Tracking
New forecast layout! Learn more

10-Day Weather Forecast

Advertisements
Track Severe Weather on mobile